createdAt,value
2022-09-10T00:03:31.901Z,15.50
2022-09-10T00:09:33.660Z,15.40
2022-09-10T00:15:43.954Z,15.50
2022-09-10T00:21:45.744Z,15.50
2022-09-10T00:27:47.601Z,15.50
2022-09-10T00:33:50.842Z,15.50
2022-09-10T00:39:52.799Z,15.40
2022-09-10T00:45:55.954Z,15.40
2022-09-10T00:51:58.116Z,15.50
2022-09-10T00:58:01.694Z,15.50
2022-09-10T01:04:06.386Z,15.50
2022-09-10T01:10:23.359Z,15.60
2022-09-10T01:16:34.122Z,15.50
2022-09-10T01:22:38.913Z,15.50
2022-09-10T01:28:47.900Z,15.50
2022-09-10T01:35:27.870Z,15.50
2022-09-10T01:41:31.095Z,15.50
2022-09-10T01:47:48.549Z,15.50
2022-09-10T01:53:53.358Z,15.50
2022-09-10T01:59:55.123Z,15.50
2022-09-10T02:05:59.144Z,15.50
2022-09-10T02:12:01.943Z,15.50
2022-09-10T02:18:04.391Z,15.30
2022-09-10T02:24:09.432Z,15.20
2022-09-10T02:30:13.037Z,15.10
2022-09-10T02:36:14.798Z,15.10
2022-09-10T02:42:18.094Z,15.10
2022-09-10T02:48:21.542Z,15.10
2022-09-10T02:54:23.317Z,15.00
2022-09-10T03:00:25.127Z,15.00
2022-09-10T03:06:27.533Z,15.10
2022-09-10T03:12:29.383Z,15.00
2022-09-10T03:18:35.389Z,15.00
2022-09-10T03:24:37.322Z,15.00
2022-09-10T03:30:40.637Z,15.10
2022-09-10T03:36:42.401Z,15.10
2022-09-10T03:42:44.329Z,15.00
2022-09-10T03:48:46.085Z,14.90
2022-09-10T03:54:47.827Z,14.90
2022-09-10T04:00:49.616Z,14.90
2022-09-10T04:06:53.458Z,14.90
2022-09-10T04:12:55.217Z,15.00
2022-09-10T04:18:57.056Z,15.00
2022-09-10T04:24:59.670Z,14.90
2022-09-10T04:31:01.725Z,14.90
2022-09-10T04:37:03.577Z,15.00
2022-09-10T04:43:06.542Z,15.00
2022-09-10T04:49:08.326Z,14.80
2022-09-10T04:55:11.063Z,14.80
2022-09-10T05:01:13.171Z,14.90
2022-09-10T05:07:15.104Z,14.80
2022-09-10T05:13:16.905Z,14.80
2022-09-10T05:19:18.780Z,14.80
2022-09-10T05:25:21.009Z,14.90
2022-09-10T05:31:22.824Z,14.90
2022-09-10T05:37:24.774Z,14.80
2022-09-10T05:43:27.552Z,14.90
2022-09-10T05:49:30.577Z,14.90
2022-09-10T05:55:33.271Z,14.90
2022-09-10T06:01:35.019Z,14.90
2022-09-10T06:07:36.815Z,15.00
2022-09-10T06:13:40.702Z,15.00
2022-09-10T06:19:43.053Z,15.00
2022-09-10T06:25:45.057Z,15.20
2022-09-10T06:31:47.333Z,15.30
2022-09-10T06:37:49.135Z,15.30
2022-09-10T06:43:51.058Z,15.30
2022-09-10T06:49:52.898Z,15.30
2022-09-10T06:55:55.757Z,15.40
2022-09-10T07:01:57.817Z,15.50
2022-09-10T07:07:59.793Z,15.60
2022-09-10T07:14:01.637Z,15.80
2022-09-10T07:20:04.230Z,15.80
2022-09-10T07:26:11.673Z,15.90
2022-09-10T07:32:13.741Z,15.90
2022-09-10T07:38:20.954Z,16.00
2022-09-10T07:44:23.117Z,16.10
2022-09-10T07:50:24.929Z,16.30
2022-09-10T07:56:27.162Z,16.50
2022-09-10T08:02:28.999Z,16.70
2022-09-10T08:08:36.227Z,16.70
2022-09-10T08:14:38.151Z,16.50
2022-09-10T08:20:41.043Z,16.50
2022-09-10T08:26:42.818Z,16.40
2022-09-10T08:32:44.534Z,16.40
2022-09-10T08:38:46.819Z,16.40
2022-09-10T08:44:50.949Z,16.40
2022-09-10T08:51:14.478Z,16.40
2022-09-10T08:57:28.182Z,16.40
2022-09-10T09:03:36.147Z,16.40
2022-09-10T09:09:37.980Z,16.40
2022-09-10T09:16:18.819Z,16.50
2022-09-10T09:22:45.428Z,16.60
2022-09-10T09:29:01.427Z,16.80
2022-09-10T09:35:23.818Z,16.90
2022-09-10T09:41:39.368Z,17.10
2022-09-10T09:47:41.906Z,17.20
2022-09-10T09:53:48.374Z,17.40
2022-09-10T09:59:51.842Z,17.50
2022-09-10T10:06:02.414Z,17.60
2022-09-10T10:12:06.002Z,17.60
2022-09-10T10:18:33.979Z,17.80
2022-09-10T10:24:35.699Z,17.90
2022-09-10T10:30:37.483Z,17.80
2022-09-10T10:37:13.308Z,17.50
2022-09-10T10:43:41.900Z,17.50
2022-09-10T10:50:04.588Z,17.50
2022-09-10T10:56:38.932Z,18.00
2022-09-10T11:02:46.710Z,19.20
2022-09-10T11:08:55.157Z,20.00
2022-09-10T11:15:10.074Z,19.60
2022-09-10T11:21:25.644Z,19.50
2022-09-10T11:27:39.974Z,19.40
2022-09-10T11:34:05.701Z,19.60
2022-09-10T11:40:18.367Z,19.90
2022-09-10T11:46:32.348Z,20.10
2022-09-10T11:52:35.236Z,20.10
2022-09-10T11:58:50.967Z,19.90
2022-09-10T12:05:07.412Z,19.60
2022-09-10T12:11:28.393Z,19.60
2022-09-10T12:17:34.507Z,19.60
2022-09-10T12:23:42.258Z,19.60
2022-09-10T12:29:44.726Z,19.80
2022-09-10T12:35:51.451Z,19.60
2022-09-10T12:41:53.218Z,19.50
2022-09-10T12:47:55.264Z,19.30
2022-09-10T12:54:23.934Z,19.20
2022-09-10T13:00:30.249Z,19.00
2022-09-10T13:06:40.758Z,18.90
2022-09-10T13:12:44.230Z,18.70
2022-09-10T13:18:47.328Z,18.60
2022-09-10T13:25:06.173Z,18.60
2022-09-10T13:31:11.405Z,18.30
2022-09-10T13:37:26.138Z,18.10
2022-09-10T13:43:53.177Z,17.90
2022-09-10T13:50:01.000Z,17.70
2022-09-10T13:56:12.368Z,17.60
2022-09-10T14:02:19.766Z,17.60
2022-09-10T14:08:29.556Z,17.70
2022-09-10T14:14:37.817Z,17.90
2022-09-10T14:20:40.146Z,18.20
2022-09-10T14:26:48.621Z,18.50
2022-09-10T14:32:51.868Z,18.50
2022-09-10T14:39:06.897Z,18.40
2022-09-10T14:45:38.526Z,18.50
2022-09-10T14:51:40.343Z,18.60
2022-09-10T14:57:42.377Z,18.70
2022-09-10T15:03:44.295Z,18.60
2022-09-10T15:09:46.947Z,18.60
2022-09-10T15:15:48.799Z,18.60
2022-09-10T15:21:51.111Z,18.50
2022-09-10T15:27:52.883Z,18.50
2022-09-10T15:33:54.821Z,18.50
2022-09-10T15:39:58.558Z,18.50
2022-09-10T15:46:02.059Z,18.50
2022-09-10T15:52:03.978Z,18.60
2022-09-10T15:58:06.353Z,18.70
2022-09-10T16:04:08.803Z,18.60
2022-09-10T16:10:12.195Z,18.50
2022-09-10T16:16:19.002Z,18.40
2022-09-10T16:22:21.070Z,18.50
2022-09-10T16:28:22.926Z,18.50
2022-09-10T16:34:24.854Z,18.50
2022-09-10T16:40:26.746Z,18.50
2022-09-10T16:46:28.834Z,18.50
2022-09-10T16:52:31.406Z,18.50
2022-09-10T16:58:36.089Z,18.50
2022-09-10T17:04:37.982Z,18.40
2022-09-10T17:10:40.734Z,18.30
2022-09-10T17:16:43.690Z,18.30
2022-09-10T17:22:46.689Z,18.20
2022-09-10T17:29:02.216Z,18.00
2022-09-10T17:35:04.560Z,18.00
2022-09-10T17:41:06.276Z,17.90
2022-09-10T17:47:09.962Z,17.90
2022-09-10T17:53:12.658Z,17.80
2022-09-10T17:59:14.501Z,17.70
2022-09-10T18:05:16.471Z,17.60
2022-09-10T18:11:22.300Z,17.60
2022-09-10T18:17:24.162Z,17.50
2022-09-10T18:23:25.921Z,17.50
2022-09-10T18:29:30.087Z,17.40
2022-09-10T18:35:36.078Z,17.40
2022-09-10T18:41:41.673Z,17.30
2022-09-10T18:47:45.224Z,17.30
2022-09-10T18:53:47.881Z,17.20
2022-09-10T18:59:50.026Z,17.20
2022-09-10T19:05:51.717Z,17.10
2022-09-10T19:11:54.714Z,17.10
2022-09-10T19:17:56.691Z,17.10
2022-09-10T19:24:01.753Z,17.10
2022-09-10T19:30:04.008Z,17.10
2022-09-10T19:36:11.494Z,17.00
2022-09-10T19:42:13.263Z,17.10
2022-09-10T19:48:15.002Z,17.00
2022-09-10T19:54:16.744Z,17.10
2022-09-10T20:00:43.094Z,17.10
2022-09-10T20:06:41.234Z,17.00
2022-09-10T20:12:42.945Z,17.00
2022-09-10T20:18:45.498Z,17.00
2022-09-10T20:24:47.569Z,17.00
2022-09-10T20:30:49.356Z,16.80
2022-09-10T20:36:51.971Z,16.80
2022-09-10T20:42:53.729Z,16.70
2022-09-10T20:49:03.047Z,16.70
2022-09-10T20:55:06.504Z,16.60
2022-09-10T21:01:19.083Z,16.60
2022-09-10T21:07:20.901Z,16.60
2022-09-10T21:13:25.106Z,16.60
2022-09-10T21:19:27.161Z,16.50
2022-09-10T21:25:29.745Z,16.30
2022-09-10T21:31:31.848Z,16.30
2022-09-10T21:37:33.651Z,16.20
2022-09-10T21:43:36.010Z,16.30
2022-09-10T21:49:37.674Z,16.20
2022-09-10T21:55:39.461Z,16.20
2022-09-10T22:01:43.924Z,15.90
2022-09-10T22:07:46.796Z,15.80
2022-09-10T22:13:58.965Z,15.90
2022-09-10T22:20:00.691Z,15.80
2022-09-10T22:26:07.050Z,15.90
2022-09-10T22:32:09.261Z,16.00
2022-09-10T22:38:17.912Z,16.00
2022-09-10T22:44:23.142Z,15.90
2022-09-10T22:50:24.828Z,15.80
2022-09-10T22:56:27.672Z,15.90
2022-09-10T23:02:29.391Z,15.90
2022-09-10T23:08:32.613Z,16.00
2022-09-10T23:14:34.285Z,15.80
2022-09-10T23:20:36.743Z,15.70
2022-09-10T23:26:39.052Z,15.70
2022-09-10T23:32:41.730Z,15.60
2022-09-10T23:38:44.352Z,15.60
2022-09-10T23:44:46.064Z,15.60
2022-09-10T23:50:47.875Z,15.60
2022-09-10T23:56:49.556Z,15.60
